Time;durP1;ratioP1;P1;durP2;ratioP2;P2;SDS_P1;SDS_P2;PMS_P1;PMS_P2;Temp;Humidity;BMP_temperature;BMP_pressure;BME280_temperature;BME280_humidity;BME280_pressure;Samples;Min_cycle;Max_cycle;Signal;HPM_P1;HPM_P2
2022/10/15 00:00:00;;;;;;;0.7;0.7;;;;;;;12.0;100.0;100510;;;;
2022/10/15 00:01:08;;;;;;;0.7;0.7;;;;;;;12.0;100.0;100510;;;;
2022/10/15 00:02:00;;;;;;;0.7;0.7;;;;;;;12.0;100.0;100510;;;;
2022/10/15 00:03:00;;;;;;;0.7;0.7;;;;;;;11.9;100.0;100520;;;;
2022/10/15 00:04:00;;;;;;;0.7;0.7;;;;;;;11.9;100.0;100520;;;;
2022/10/15 00:05:00;;;;;;;0.7;0.7;;;;;;;11.9;100.0;100510;;;;
2022/10/15 00:06:02;;;;;;;0.7;0.7;;;;;;;11.9;100.0;100510;;;;
2022/10/15 00:07:00;;;;;;;0.7;0.7;;;;;;;11.9;100.0;100510;;;;
2022/10/15 00:08:00;;;;;;;0.7;0.7;;;;;;;11.9;100.0;100510;;;;
2022/10/15 00:09:00;;;;;;;0.7;0.7;;;;;;;11.9;100.0;100520;;;;
2022/10/15 00:10:00;;;;;;;0.7;0.7;;;;;;;11.9;100.0;100520;;;;
2022/10/15 00:11:02;;;;;;;0.7;0.7;;;;;;;11.8;100.0;100520;;;;
2022/10/15 00:12:00;;;;;;;0.7;0.7;;;;;;;11.8;100.0;100520;;;;
2022/10/15 00:13:00;;;;;;;0.7;0.7;;;;;;;11.8;100.0;100520;;;;
2022/10/15 00:14:00;;;;;;;0.7;0.7;;;;;;;11.8;100.0;100520;;;;
2022/10/15 00:15:00;;;;;;;0.7;0.7;;;;;;;11.8;100.0;100520;;;;
2022/10/15 00:16:00;;;;;;;0.7;0.7;;;;;;;11.8;100.0;100520;;;;
2022/10/15 00:17:00;;;;;;;0.7;0.7;;;;;;;11.9;100.0;100520;;;;
2022/10/15 00:18:00;;;;;;;0.7;0.7;;;;;;;11.9;100.0;100520;;;;
2022/10/15 00:19:00;;;;;;;0.7;0.7;;;;;;;11.9;100.0;100520;;;;
2022/10/15 00:20:00;;;;;;;0.7;0.7;;;;;;;11.9;100.0;100520;;;;
2022/10/15 00:21:00;;;;;;;0.7;0.7;;;;;;;11.9;100.0;100520;;;;
2022/10/15 00:22:01;;;;;;;0.7;0.7;;;;;;;11.9;100.0;100520;;;;
2022/10/15 00:23:00;;;;;;;0.7;0.7;;;;;;;11.8;100.0;100520;;;;
2022/10/15 00:24:00;;;;;;;0.7;0.7;;;;;;;11.8;100.0;100520;;;;
2022/10/15 00:25:00;;;;;;;0.7;0.7;;;;;;;11.8;100.0;100520;;;;
2022/10/15 00:26:05;;;;;;;0.7;0.7;;;;;;;11.8;100.0;100520;;;;
2022/10/15 00:27:00;;;;;;;0.7;0.7;;;;;;;11.7;100.0;100520;;;;
2022/10/15 00:28:00;;;;;;;0.7;0.7;;;;;;;11.7;100.0;100520;;;;
2022/10/15 00:29:01;;;;;;;0.7;0.7;;;;;;;11.7;100.0;100520;;;;
2022/10/15 00:30:02;;;;;;;0.7;0.7;;;;;;;11.7;100.0;100520;;;;
2022/10/15 00:31:02;;;;;;;0.7;0.7;;;;;;;11.7;100.0;100530;;;;
2022/10/15 00:32:00;;;;;;;0.7;0.7;;;;;;;11.7;100.0;100530;;;;
2022/10/15 00:33:00;;;;;;;0.7;0.7;;;;;;;11.7;100.0;100530;;;;
2022/10/15 00:34:01;;;;;;;1.0;1.0;;;;;;;11.7;100.0;100530;;;;
2022/10/15 00:35:00;;;;;;;1.0;1.0;;;;;;;11.7;100.0;100530;;;;
2022/10/15 00:36:02;;;;;;;1.0;1.0;;;;;;;11.7;100.0;100530;;;;
2022/10/15 00:37:00;;;;;;;1.0;1.0;;;;;;;11.7;100.0;100530;;;;
2022/10/15 00:38:00;;;;;;;1.0;1.0;;;;;;;11.7;100.0;100530;;;;
2022/10/15 00:39:00;;;;;;;1.0;1.0;;;;;;;11.7;100.0;100530;;;;
2022/10/15 00:40:00;;;;;;;1.0;1.0;;;;;;;11.7;100.0;100530;;;;
2022/10/15 00:41:00;;;;;;;1.0;1.0;;;;;;;11.7;100.0;100520;;;;
2022/10/15 00:42:00;;;;;;;1.0;1.0;;;;;;;11.7;100.0;100520;;;;
2022/10/15 00:43:00;;;;;;;1.0;1.0;;;;;;;11.6;100.0;100530;;;;
2022/10/15 00:44:01;;;;;;;1.0;1.0;;;;;;;11.6;100.0;100530;;;;
2022/10/15 00:45:00;;;;;;;1.0;1.0;;;;;;;11.6;100.0;100530;;;;
2022/10/15 00:46:00;;;;;;;1.0;1.0;;;;;;;11.6;100.0;100530;;;;
2022/10/15 00:47:05;;;;;;;1.0;1.0;;;;;;;11.6;100.0;100530;;;;
2022/10/15 00:48:00;;;;;;;1.0;1.0;;;;;;;11.6;100.0;100530;;;;
2022/10/15 00:49:04;;;;;;;1.0;1.0;;;;;;;11.6;100.0;100530;;;;
2022/10/15 00:50:00;;;;;;;1.0;1.0;;;;;;;11.6;100.0;100530;;;;
2022/10/15 00:51:03;;;;;;;1.0;1.0;;;;;;;11.6;100.0;100530;;;;
2022/10/15 00:52:02;;;;;;;1.0;1.0;;;;;;;11.6;100.0;100530;;;;
2022/10/15 00:53:03;;;;;;;1.0;1.0;;;;;;;11.7;100.0;100530;;;;
2022/10/15 00:54:00;;;;;;;1.6;1.5;;;;;;;11.7;100.0;100530;;;;
2022/10/15 00:55:04;;;;;;;1.6;1.5;;;;;;;11.7;100.0;100530;;;;
2022/10/15 00:56:00;;;;;;;1.6;1.5;;;;;;;11.7;100.0;100530;;;;
2022/10/15 00:57:00;;;;;;;1.6;1.5;;;;;;;11.8;100.0;100530;;;;
2022/10/15 00:58:02;;;;;;;1.6;1.5;;;;;;;11.8;100.0;100530;;;;
2022/10/15 00:59:00;;;;;;;1.6;1.5;;;;;;;11.8;100.0;100530;;;;
2022/10/15 01:00:02;;;;;;;1.6;1.5;;;;;;;11.8;100.0;100530;;;;
2022/10/15 01:01:00;;;;;;;1.6;1.5;;;;;;;11.9;100.0;100530;;;;
2022/10/15 01:02:00;;;;;;;1.6;1.5;;;;;;;11.9;100.0;100530;;;;
2022/10/15 01:03:00;;;;;;;1.6;1.5;;;;;;;11.9;100.0;100530;;;;
2022/10/15 01:04:01;;;;;;;1.6;1.5;;;;;;;11.9;100.0;100530;;;;
2022/10/15 01:05:00;;;;;;;1.6;1.5;;;;;;;11.9;100.0;100530;;;;
2022/10/15 01:06:00;;;;;;;1.6;1.5;;;;;;;11.9;100.0;100530;;;;
2022/10/15 01:07:00;;;;;;;1.6;1.5;;;;;;;12.0;100.0;100520;;;;
2022/10/15 01:08:00;;;;;;;1.6;1.5;;;;;;;12.0;100.0;100520;;;;
2022/10/15 01:09:00;;;;;;;1.6;1.5;;;;;;;12.0;100.0;100520;;;;
2022/10/15 01:10:00;;;;;;;1.6;1.5;;;;;;;12.0;100.0;100520;;;;
2022/10/15 01:11:00;;;;;;;1.6;1.5;;;;;;;12.0;100.0;100520;;;;
2022/10/15 01:12:01;;;;;;;1.6;1.5;;;;;;;12.0;100.0;100520;;;;
2022/10/15 01:13:07;;;;;;;1.6;1.5;;;;;;;12.1;100.0;100530;;;;
2022/10/15 01:14:08;;;;;;;0.9;0.9;;;;;;;12.1;100.0;100530;;;;
2022/10/15 01:15:07;;;;;;;0.9;0.9;;;;;;;12.3;100.0;100520;;;;
2022/10/15 01:16:07;;;;;;;0.9;0.9;;;;;;;12.3;100.0;100520;;;;
2022/10/15 01:17:01;;;;;;;0.9;0.9;;;;;;;12.2;100.0;100520;;;;
2022/10/15 01:18:08;;;;;;;0.9;0.9;;;;;;;12.2;100.0;100520;;;;
2022/10/15 01:19:05;;;;;;;0.9;0.9;;;;;;;12.4;100.0;100520;;;;
2022/10/15 01:20:01;;;;;;;0.9;0.9;;;;;;;12.4;100.0;100520;;;;
2022/10/15 01:21:07;;;;;;;0.9;0.9;;;;;;;12.4;100.0;100510;;;;
2022/10/15 01:22:00;;;;;;;0.9;0.9;;;;;;;12.4;100.0;100510;;;;
2022/10/15 01:23:10;;;;;;;0.9;0.9;;;;;;;12.4;100.0;100510;;;;
2022/10/15 01:24:10;;;;;;;0.9;0.9;;;;;;;12.4;100.0;100510;;;;
2022/10/15 01:25:00;;;;;;;0.9;0.9;;;;;;;12.4;100.0;100510;;;;
2022/10/15 01:26:00;;;;;;;0.9;0.9;;;;;;;12.4;100.0;100510;;;;
2022/10/15 01:27:08;;;;;;;0.9;0.9;;;;;;;12.3;100.0;100500;;;;
2022/10/15 01:28:10;;;;;;;0.9;0.9;;;;;;;12.3;100.0;100500;;;;
2022/10/15 01:29:10;;;;;;;0.9;0.9;;;;;;;12.2;100.0;100500;;;;
2022/10/15 01:30:00;;;;;;;0.9;0.9;;;;;;;12.2;100.0;100500;;;;
2022/10/15 01:31:02;;;;;;;0.9;0.9;;;;;;;12.3;100.0;100500;;;;
2022/10/15 01:32:05;;;;;;;0.9;0.9;;;;;;;12.3;100.0;100500;;;;
2022/10/15 01:33:07;;;;;;;0.9;0.9;;;;;;;12.3;100.0;100500;;;;
2022/10/15 01:34:02;;;;;;;1.2;1.2;;;;;;;12.3;100.0;100500;;;;
2022/10/15 01:35:07;;;;;;;1.2;1.2;;;;;;;12.3;100.0;100500;;;;
2022/10/15 01:36:05;;;;;;;1.2;1.2;;;;;;;12.3;100.0;100500;;;;
2022/10/15 01:37:04;;;;;;;1.2;1.2;;;;;;;12.4;100.0;100490;;;;
2022/10/15 01:38:00;;;;;;;1.2;1.2;;;;;;;12.4;100.0;100490;;;;
2022/10/15 01:39:05;;;;;;;1.2;1.2;;;;;;;12.4;100.0;100490;;;;
2022/10/15 01:40:06;;;;;;;1.2;1.2;;;;;;;12.4;100.0;100490;;;;
2022/10/15 01:41:04;;;;;;;1.2;1.2;;;;;;;12.4;100.0;100490;;;;
2022/10/15 01:42:03;;;;;;;1.2;1.2;;;;;;;12.4;100.0;100490;;;;
2022/10/15 01:43:02;;;;;;;1.2;1.2;;;;;;;12.4;100.0;100490;;;;
2022/10/15 01:44:03;;;;;;;1.2;1.2;;;;;;;12.4;100.0;100490;;;;
2022/10/15 01:45:04;;;;;;;1.2;1.2;;;;;;;12.4;100.0;100490;;;;
2022/10/15 01:46:04;;;;;;;1.2;1.2;;;;;;;12.4;100.0;100490;;;;
2022/10/15 01:47:02;;;;;;;1.2;1.2;;;;;;;12.4;100.0;100490;;;;
2022/10/15 01:48:03;;;;;;;1.2;1.2;;;;;;;12.4;100.0;100490;;;;
2022/10/15 01:49:02;;;;;;;1.2;1.2;;;;;;;12.4;100.0;100490;;;;
2022/10/15 01:50:01;;;;;;;1.2;1.2;;;;;;;12.4;100.0;100490;;;;
2022/10/15 01:51:02;;;;;;;1.2;1.2;;;;;;;12.4;100.0;100500;;;;
2022/10/15 01:52:02;;;;;;;1.2;1.2;;;;;;;12.4;100.0;100500;;;;
2022/10/15 01:53:01;;;;;;;1.2;1.2;;;;;;;12.4;100.0;100500;;;;
2022/10/15 01:54:01;;;;;;;0.7;0.7;;;;;;;12.4;100.0;100500;;;;
2022/10/15 01:55:01;;;;;;;0.7;0.7;;;;;;;12.5;100.0;100500;;;;
2022/10/15 01:56:03;;;;;;;0.7;0.7;;;;;;;12.5;100.0;100500;;;;
2022/10/15 01:57:01;;;;;;;0.7;0.7;;;;;;;12.6;100.0;100500;;;;
2022/10/15 01:58:01;;;;;;;0.7;0.7;;;;;;;12.6;100.0;100500;;;;
2022/10/15 01:59:01;;;;;;;0.7;0.7;;;;;;;12.5;100.0;100490;;;;
2022/10/15 02:00:01;;;;;;;0.7;0.7;;;;;;;12.5;100.0;100490;;;;
2022/10/15 02:01:00;;;;;;;0.7;0.7;;;;;;;12.5;100.0;100490;;;;
2022/10/15 02:02:00;;;;;;;0.7;0.7;;;;;;;12.5;100.0;100490;;;;
2022/10/15 02:03:00;;;;;;;0.7;0.7;;;;;;;12.5;100.0;100480;;;;
2022/10/15 02:04:00;;;;;;;0.7;0.7;;;;;;;12.5;100.0;100480;;;;
2022/10/15 02:05:00;;;;;;;0.7;0.7;;;;;;;12.5;100.0;100490;;;;
2022/10/15 02:06:05;;;;;;;0.7;0.7;;;;;;;12.5;100.0;100490;;;;
2022/10/15 02:07:07;;;;;;;0.7;0.7;;;;;;;12.4;100.0;100480;;;;
2022/10/15 02:08:10;;;;;;;0.7;0.7;;;;;;;12.4;100.0;100480;;;;
2022/10/15 02:09:10;;;;;;;0.7;0.7;;;;;;;12.4;100.0;100480;;;;
2022/10/15 02:10:07;;;;;;;0.7;0.7;;;;;;;12.4;100.0;100480;;;;
2022/10/15 02:11:00;;;;;;;0.7;0.7;;;;;;;12.4;100.0;100480;;;;
2022/10/15 02:12:08;;;;;;;0.7;0.7;;;;;;;12.4;100.0;100480;;;;
2022/10/15 02:13:08;;;;;;;0.7;0.7;;;;;;;12.6;100.0;100480;;;;
2022/10/15 02:14:10;;;;;;;0.7;0.7;;;;;;;12.6;100.0;100480;;;;
2022/10/15 02:15:00;;;;;;;0.7;0.7;;;;;;;12.5;100.0;100480;;;;
2022/10/15 02:16:00;;;;;;;0.7;0.7;;;;;;;12.5;100.0;100480;;;;
2022/10/15 02:17:04;;;;;;;0.7;0.7;;;;;;;12.5;100.0;100480;;;;
2022/10/15 02:18:01;;;;;;;0.7;0.7;;;;;;;12.5;100.0;100480;;;;
2022/10/15 02:19:04;;;;;;;0.7;0.7;;;;;;;12.5;100.0;100480;;;;
2022/10/15 02:20:07;;;;;;;0.7;0.7;;;;;;;12.5;100.0;100480;;;;
2022/10/15 02:21:07;;;;;;;0.7;0.7;;;;;;;12.6;100.0;100480;;;;
2022/10/15 02:22:05;;;;;;;0.7;0.7;;;;;;;12.6;100.0;100480;;;;
2022/10/15 02:23:02;;;;;;;0.7;0.7;;;;;;;12.6;100.0;100470;;;;
2022/10/15 02:24:10;;;;;;;0.7;0.7;;;;;;;12.6;100.0;100470;;;;
2022/10/15 02:25:05;;;;;;;0.7;0.7;;;;;;;12.6;100.0;100470;;;;
2022/10/15 02:26:03;;;;;;;0.7;0.7;;;;;;;12.6;100.0;100470;;;;
2022/10/15 02:27:01;;;;;;;0.7;0.7;;;;;;;12.6;100.0;100470;;;;
2022/10/15 02:28:02;;;;;;;0.7;0.7;;;;;;;12.6;100.0;100470;;;;
2022/10/15 02:29:02;;;;;;;0.7;0.7;;;;;;;12.5;100.0;100460;;;;
2022/10/15 02:30:02;;;;;;;0.7;0.7;;;;;;;12.5;100.0;100460;;;;
2022/10/15 02:31:00;;;;;;;0.7;0.7;;;;;;;12.6;100.0;100460;;;;
2022/10/15 02:32:00;;;;;;;0.7;0.7;;;;;;;12.6;100.0;100460;;;;
2022/10/15 02:33:00;;;;;;;0.7;0.7;;;;;;;12.6;100.0;100460;;;;
2022/10/15 02:34:03;;;;;;;1.5;1.5;;;;;;;12.6;100.0;100460;;;;
2022/10/15 02:35:00;;;;;;;1.5;1.5;;;;;;;12.6;100.0;100460;;;;
2022/10/15 02:36:00;;;;;;;1.5;1.5;;;;;;;12.6;100.0;100460;;;;
2022/10/15 02:37:01;;;;;;;1.5;1.5;;;;;;;12.6;100.0;100460;;;;
2022/10/15 02:38:03;;;;;;;1.5;1.5;;;;;;;12.6;100.0;100460;;;;
2022/10/15 02:39:00;;;;;;;1.5;1.5;;;;;;;12.7;100.0;100460;;;;
2022/10/15 02:40:00;;;;;;;1.5;1.5;;;;;;;12.7;100.0;100460;;;;
2022/10/15 02:41:00;;;;;;;1.5;1.5;;;;;;;12.6;100.0;100460;;;;
2022/10/15 02:42:00;;;;;;;1.5;1.5;;;;;;;12.6;100.0;100460;;;;
2022/10/15 02:43:02;;;;;;;1.5;1.5;;;;;;;12.8;100.0;100450;;;;
2022/10/15 02:44:00;;;;;;;1.5;1.5;;;;;;;12.8;100.0;100450;;;;
2022/10/15 02:45:00;;;;;;;1.5;1.5;;;;;;;12.7;100.0;100450;;;;
2022/10/15 02:46:00;;;;;;;1.5;1.5;;;;;;;12.7;100.0;100450;;;;
2022/10/15 02:47:00;;;;;;;1.5;1.5;;;;;;;12.7;100.0;100440;;;;
2022/10/15 02:48:00;;;;;;;1.5;1.5;;;;;;;12.7;100.0;100440;;;;
2022/10/15 02:49:00;;;;;;;1.5;1.5;;;;;;;12.6;100.0;100440;;;;
2022/10/15 02:50:00;;;;;;;1.5;1.5;;;;;;;12.6;100.0;100440;;;;
2022/10/15 02:51:00;;;;;;;1.5;1.5;;;;;;;12.6;100.0;100440;;;;
2022/10/15 02:52:00;;;;;;;1.5;1.5;;;;;;;12.6;100.0;100440;;;;
2022/10/15 02:53:00;;;;;;;1.0;1.0;;;;;;;12.6;100.0;100440;;;;
2022/10/15 02:54:01;;;;;;;1.0;1.0;;;;;;;12.6;100.0;100440;;;;
2022/10/15 02:55:00;;;;;;;1.0;1.0;;;;;;;12.5;100.0;100440;;;;
2022/10/15 02:56:00;;;;;;;1.0;1.0;;;;;;;12.5;100.0;100440;;;;
2022/10/15 02:57:00;;;;;;;1.0;1.0;;;;;;;12.6;100.0;100430;;;;
2022/10/15 02:58:00;;;;;;;1.0;1.0;;;;;;;12.6;100.0;100430;;;;
2022/10/15 02:59:00;;;;;;;1.0;1.0;;;;;;;12.5;100.0;100440;;;;
2022/10/15 03:00:00;;;;;;;1.0;1.0;;;;;;;12.5;100.0;100440;;;;
2022/10/15 03:01:00;;;;;;;1.0;1.0;;;;;;;12.5;100.0;100430;;;;
2022/10/15 03:02:00;;;;;;;1.0;1.0;;;;;;;12.5;100.0;100430;;;;
2022/10/15 03:03:00;;;;;;;1.0;1.0;;;;;;;12.7;100.0;100420;;;;
2022/10/15 03:04:00;;;;;;;1.0;1.0;;;;;;;12.7;100.0;100420;;;;
2022/10/15 03:05:00;;;;;;;1.0;1.0;;;;;;;12.5;100.0;100430;;;;
2022/10/15 03:06:00;;;;;;;1.0;1.0;;;;;;;12.5;100.0;100430;;;;
2022/10/15 03:07:00;;;;;;;1.0;1.0;;;;;;;12.4;100.0;100420;;;;
2022/10/15 03:08:00;;;;;;;1.0;1.0;;;;;;;12.4;100.0;100420;;;;
2022/10/15 03:09:00;;;;;;;1.0;1.0;;;;;;;12.4;100.0;100420;;;;
2022/10/15 03:10:00;;;;;;;1.0;1.0;;;;;;;12.4;100.0;100420;;;;
2022/10/15 03:11:00;;;;;;;1.0;1.0;;;;;;;12.4;100.0;100420;;;;
2022/10/15 03:12:00;;;;;;;1.0;1.0;;;;;;;12.4;100.0;100420;;;;
2022/10/15 03:13:03;;;;;;;0.8;0.8;;;;;;;12.4;100.0;100410;;;;
2022/10/15 03:14:00;;;;;;;0.8;0.8;;;;;;;12.4;100.0;100410;;;;
2022/10/15 03:15:00;;;;;;;0.8;0.8;;;;;;;12.6;100.0;100410;;;;
2022/10/15 03:16:02;;;;;;;0.8;0.8;;;;;;;12.6;100.0;100410;;;;
2022/10/15 03:17:00;;;;;;;0.8;0.8;;;;;;;12.5;100.0;100410;;;;
2022/10/15 03:18:00;;;;;;;0.8;0.8;;;;;;;12.5;100.0;100410;;;;
2022/10/15 03:19:00;;;;;;;0.8;0.8;;;;;;;12.7;100.0;100410;;;;
2022/10/15 03:20:00;;;;;;;0.8;0.8;;;;;;;12.7;100.0;100410;;;;
2022/10/15 03:21:00;;;;;;;0.8;0.8;;;;;;;12.6;100.0;100410;;;;
2022/10/15 03:22:00;;;;;;;0.8;0.8;;;;;;;12.6;100.0;100410;;;;
2022/10/15 03:23:00;;;;;;;0.8;0.8;;;;;;;12.5;100.0;100410;;;;
2022/10/15 03:24:00;;;;;;;0.8;0.8;;;;;;;12.5;100.0;100410;;;;
2022/10/15 03:25:00;;;;;;;0.8;0.8;;;;;;;12.4;100.0;100410;;;;
2022/10/15 03:26:00;;;;;;;0.8;0.8;;;;;;;12.4;100.0;100410;;;;
2022/10/15 03:27:00;;;;;;;0.8;0.8;;;;;;;12.4;100.0;100410;;;;
2022/10/15 03:28:00;;;;;;;0.8;0.8;;;;;;;12.4;100.0;100410;;;;
2022/10/15 03:29:00;;;;;;;0.8;0.8;;;;;;;12.4;100.0;100410;;;;
2022/10/15 03:30:00;;;;;;;0.8;0.8;;;;;;;12.4;100.0;100410;;;;
2022/10/15 03:31:00;;;;;;;0.8;0.8;;;;;;;12.5;100.0;100410;;;;
2022/10/15 03:32:00;;;;;;;0.8;0.8;;;;;;;12.5;100.0;100410;;;;
2022/10/15 03:33:00;;;;;;;0.7;0.7;;;;;;;12.6;100.0;100410;;;;
2022/10/15 03:34:00;;;;;;;0.7;0.7;;;;;;;12.6;100.0;100410;;;;
2022/10/15 03:35:00;;;;;;;0.7;0.7;;;;;;;12.4;100.0;100420;;;;
2022/10/15 03:36:00;;;;;;;0.7;0.7;;;;;;;12.4;100.0;100420;;;;
2022/10/15 03:37:00;;;;;;;0.7;0.7;;;;;;;12.4;100.0;100420;;;;
2022/10/15 03:38:00;;;;;;;0.7;0.7;;;;;;;12.4;100.0;100420;;;;
2022/10/15 03:39:00;;;;;;;0.7;0.7;;;;;;;12.3;100.0;100430;;;;
2022/10/15 03:40:00;;;;;;;0.7;0.7;;;;;;;12.3;100.0;100430;;;;
2022/10/15 03:41:00;;;;;;;0.7;0.7;;;;;;;12.5;100.0;100420;;;;
2022/10/15 03:42:00;;;;;;;0.7;0.7;;;;;;;12.5;100.0;100420;;;;
2022/10/15 03:43:00;;;;;;;0.7;0.7;;;;;;;12.4;100.0;100420;;;;
2022/10/15 03:44:01;;;;;;;0.7;0.7;;;;;;;12.4;100.0;100420;;;;
2022/10/15 03:45:00;;;;;;;0.7;0.7;;;;;;;12.4;100.0;100410;;;;
2022/10/15 03:46:01;;;;;;;0.7;0.7;;;;;;;12.4;100.0;100410;;;;
2022/10/15 03:47:00;;;;;;;0.7;0.7;;;;;;;12.4;100.0;100410;;;;
2022/10/15 03:48:00;;;;;;;0.7;0.7;;;;;;;12.4;100.0;100410;;;;
2022/10/15 03:49:00;;;;;;;0.7;0.7;;;;;;;12.4;100.0;100410;;;;
2022/10/15 03:50:00;;;;;;;0.7;0.7;;;;;;;12.4;100.0;100410;;;;
2022/10/15 03:51:00;;;;;;;0.7;0.7;;;;;;;12.4;100.0;100410;;;;
2022/10/15 03:52:00;;;;;;;0.7;0.7;;;;;;;12.4;100.0;100410;;;;
2022/10/15 03:53:02;;;;;;;0.9;0.9;;;;;;;12.4;100.0;100400;;;;
2022/10/15 03:54:00;;;;;;;0.9;0.9;;;;;;;12.4;100.0;100400;;;;
2022/10/15 03:55:00;;;;;;;0.9;0.9;;;;;;;12.6;100.0;100400;;;;
2022/10/15 03:56:02;;;;;;;0.9;0.9;;;;;;;12.6;100.0;100400;;;;
2022/10/15 03:57:00;;;;;;;0.9;0.9;;;;;;;12.6;100.0;100410;;;;
2022/10/15 03:58:00;;;;;;;0.9;0.9;;;;;;;12.6;100.0;100410;;;;
2022/10/15 03:59:00;;;;;;;0.9;0.9;;;;;;;12.7;100.0;100400;;;;
2022/10/15 04:00:00;;;;;;;0.9;0.9;;;;;;;12.7;100.0;100400;;;;
2022/10/15 04:01:00;;;;;;;0.9;0.9;;;;;;;12.7;100.0;100400;;;;
2022/10/15 04:02:00;;;;;;;0.9;0.9;;;;;;;12.7;100.0;100400;;;;
2022/10/15 04:03:00;;;;;;;0.9;0.9;;;;;;;12.6;100.0;100410;;;;
2022/10/15 04:04:00;;;;;;;0.9;0.9;;;;;;;12.6;100.0;100410;;;;
2022/10/15 04:05:00;;;;;;;0.9;0.9;;;;;;;12.7;100.0;100400;;;;
2022/10/15 04:06:03;;;;;;;0.9;0.9;;;;;;;12.7;100.0;100400;;;;
2022/10/15 04:07:00;;;;;;;0.9;0.9;;;;;;;12.6;100.0;100400;;;;
2022/10/15 04:08:00;;;;;;;0.9;0.9;;;;;;;12.6;100.0;100400;;;;
2022/10/15 04:09:00;;;;;;;0.9;0.9;;;;;;;12.7;100.0;100390;;;;
2022/10/15 04:10:00;;;;;;;0.9;0.9;;;;;;;12.7;100.0;100390;;;;
2022/10/15 04:11:00;;;;;;;0.9;0.9;;;;;;;12.7;100.0;100390;;;;
2022/10/15 04:12:00;;;;;;;0.9;0.9;;;;;;;12.7;100.0;100390;;;;
2022/10/15 04:13:00;;;;;;;1.0;1.0;;;;;;;12.7;100.0;100390;;;;
2022/10/15 04:14:00;;;;;;;1.0;1.0;;;;;;;12.7;100.0;100390;;;;
2022/10/15 04:15:00;;;;;;;1.0;1.0;;;;;;;12.6;100.0;100400;;;;
2022/10/15 04:16:02;;;;;;;1.0;1.0;;;;;;;12.6;100.0;100400;;;;
2022/10/15 04:17:00;;;;;;;1.0;1.0;;;;;;;12.7;100.0;100400;;;;
2022/10/15 04:18:00;;;;;;;1.0;1.0;;;;;;;12.7;100.0;100400;;;;
2022/10/15 04:19:00;;;;;;;1.0;1.0;;;;;;;12.7;100.0;100400;;;;
2022/10/15 04:20:00;;;;;;;1.0;1.0;;;;;;;12.7;100.0;100400;;;;
2022/10/15 04:21:00;;;;;;;1.0;1.0;;;;;;;12.8;100.0;100400;;;;
2022/10/15 04:22:00;;;;;;;1.0;1.0;;;;;;;12.8;100.0;100400;;;;
2022/10/15 04:23:00;;;;;;;1.0;1.0;;;;;;;12.8;100.0;100400;;;;
2022/10/15 04:24:00;;;;;;;1.0;1.0;;;;;;;12.8;100.0;100400;;;;
2022/10/15 04:25:00;;;;;;;1.0;1.0;;;;;;;12.7;100.0;100410;;;;
2022/10/15 04:26:00;;;;;;;1.0;1.0;;;;;;;12.7;100.0;100410;;;;
2022/10/15 04:27:00;;;;;;;1.0;1.0;;;;;;;12.6;100.0;100410;;;;
2022/10/15 04:28:00;;;;;;;1.0;1.0;;;;;;;12.6;100.0;100410;;;;
2022/10/15 04:29:00;;;;;;;1.0;1.0;;;;;;;12.6;100.0;100420;;;;
2022/10/15 04:30:00;;;;;;;1.0;1.0;;;;;;;12.6;100.0;100420;;;;
2022/10/15 04:31:00;;;;;;;1.0;1.0;;;;;;;12.6;100.0;100420;;;;
2022/10/15 04:32:00;;;;;;;1.0;1.0;;;;;;;12.6;100.0;100420;;;;
2022/10/15 04:33:00;;;;;;;0.7;0.7;;;;;;;12.6;100.0;100420;;;;
2022/10/15 04:34:00;;;;;;;0.7;0.7;;;;;;;12.6;100.0;100420;;;;
2022/10/15 04:35:00;;;;;;;0.7;0.7;;;;;;;12.7;100.0;100430;;;;
2022/10/15 04:36:01;;;;;;;0.7;0.7;;;;;;;12.7;100.0;100430;;;;
2022/10/15 04:37:00;;;;;;;0.7;0.7;;;;;;;12.7;100.0;100430;;;;
2022/10/15 04:38:00;;;;;;;0.7;0.7;;;;;;;12.7;100.0;100430;;;;
2022/10/15 04:39:00;;;;;;;0.7;0.7;;;;;;;12.9;100.0;100430;;;;
2022/10/15 04:40:00;;;;;;;0.7;0.7;;;;;;;12.9;100.0;100430;;;;
2022/10/15 04:41:03;;;;;;;0.7;0.7;;;;;;;12.8;100.0;100420;;;;
2022/10/15 04:42:00;;;;;;;0.7;0.7;;;;;;;12.8;100.0;100420;;;;
2022/10/15 04:43:00;;;;;;;0.7;0.7;;;;;;;12.9;100.0;100410;;;;
2022/10/15 04:44:00;;;;;;;0.7;0.7;;;;;;;12.9;100.0;100410;;;;
2022/10/15 04:45:00;;;;;;;0.7;0.7;;;;;;;12.8;100.0;100420;;;;
2022/10/15 04:46:01;;;;;;;0.7;0.7;;;;;;;12.8;100.0;100420;;;;
2022/10/15 04:47:01;;;;;;;0.7;0.7;;;;;;;12.8;100.0;100420;;;;
2022/10/15 04:48:00;;;;;;;0.7;0.7;;;;;;;12.8;100.0;100420;;;;
2022/10/15 04:49:00;;;;;;;0.7;0.7;;;;;;;12.9;100.0;100420;;;;
2022/10/15 04:50:00;;;;;;;0.7;0.7;;;;;;;12.9;100.0;100420;;;;
2022/10/15 04:51:07;;;;;;;0.7;0.7;;;;;;;12.8;100.0;100410;;;;
2022/10/15 04:52:00;;;;;;;0.7;0.7;;;;;;;12.8;100.0;100410;;;;
2022/10/15 04:53:00;;;;;;;1.4;1.4;;;;;;;12.8;100.0;100410;;;;
2022/10/15 04:54:00;;;;;;;1.4;1.4;;;;;;;12.8;100.0;100410;;;;
2022/10/15 04:55:01;;;;;;;1.4;1.4;;;;;;;12.8;100.0;100410;;;;
2022/10/15 04:56:01;;;;;;;1.4;1.4;;;;;;;12.8;100.0;100410;;;;
2022/10/15 04:57:00;;;;;;;1.4;1.4;;;;;;;12.9;100.0;100410;;;;
2022/10/15 04:58:00;;;;;;;1.4;1.4;;;;;;;12.9;100.0;100410;;;;
2022/10/15 04:59:00;;;;;;;1.4;1.4;;;;;;;12.8;100.0;100410;;;;
2022/10/15 05:00:00;;;;;;;1.4;1.4;;;;;;;12.8;100.0;100410;;;;
2022/10/15 05:01:05;;;;;;;1.4;1.4;;;;;;;12.9;100.0;100410;;;;
2022/10/15 05:02:00;;;;;;;1.4;1.4;;;;;;;12.9;100.0;100410;;;;
2022/10/15 05:03:00;;;;;;;1.4;1.4;;;;;;;12.9;100.0;100410;;;;
2022/10/15 05:04:00;;;;;;;1.4;1.4;;;;;;;12.9;100.0;100410;;;;
2022/10/15 05:05:00;;;;;;;1.4;1.4;;;;;;;13.1;100.0;100410;;;;
2022/10/15 05:06:01;;;;;;;1.4;1.4;;;;;;;13.1;100.0;100410;;;;
2022/10/15 05:07:00;;;;;;;1.4;1.4;;;;;;;13.0;100.0;100410;;;;
2022/10/15 05:08:02;;;;;;;1.4;1.4;;;;;;;13.0;100.0;100410;;;;
2022/10/15 05:09:00;;;;;;;1.4;1.4;;;;;;;13.0;100.0;100410;;;;
2022/10/15 05:10:00;;;;;;;1.4;1.4;;;;;;;13.0;100.0;100410;;;;
2022/10/15 05:11:00;;;;;;;1.4;1.4;;;;;;;13.0;100.0;100410;;;;
2022/10/15 05:12:00;;;;;;;1.4;1.4;;;;;;;13.0;100.0;100410;;;;
2022/10/15 05:13:00;;;;;;;0.9;0.9;;;;;;;13.1;100.0;100410;;;;
2022/10/15 05:14:00;;;;;;;0.9;0.9;;;;;;;13.1;100.0;100410;;;;
2022/10/15 05:15:00;;;;;;;0.9;0.9;;;;;;;13.2;100.0;100420;;;;
2022/10/15 05:16:10;;;;;;;0.9;0.9;;;;;;;13.2;100.0;100420;;;;
2022/10/15 05:17:00;;;;;;;0.9;0.9;;;;;;;13.2;100.0;100420;;;;
2022/10/15 05:18:00;;;;;;;0.9;0.9;;;;;;;13.2;100.0;100420;;;;
2022/10/15 05:19:02;;;;;;;0.9;0.9;;;;;;;13.1;100.0;100420;;;;
2022/10/15 05:20:00;;;;;;;0.9;0.9;;;;;;;13.1;100.0;100420;;;;
2022/10/15 05:21:00;;;;;;;0.9;0.9;;;;;;;13.1;100.0;100420;;;;
2022/10/15 05:22:00;;;;;;;0.9;0.9;;;;;;;13.1;100.0;100420;;;;
2022/10/15 05:23:00;;;;;;;0.9;0.9;;;;;;;13.1;100.0;100420;;;;
2022/10/15 05:24:00;;;;;;;0.9;0.9;;;;;;;13.1;100.0;100420;;;;
2022/10/15 05:25:00;;;;;;;0.9;0.9;;;;;;;13.1;100.0;100420;;;;
2022/10/15 05:26:01;;;;;;;0.9;0.9;;;;;;;13.1;100.0;100420;;;;
2022/10/15 05:27:03;;;;;;;0.9;0.9;;;;;;;13.2;100.0;100420;;;;
2022/10/15 05:28:00;;;;;;;0.9;0.9;;;;;;;13.2;100.0;100420;;;;
2022/10/15 05:29:00;;;;;;;0.9;0.9;;;;;;;13.2;100.0;100420;;;;
2022/10/15 05:30:00;;;;;;;0.9;0.9;;;;;;;13.2;100.0;100420;;;;
2022/10/15 05:31:09;;;;;;;0.9;0.9;;;;;;;13.2;100.0;100420;;;;
2022/10/15 05:32:00;;;;;;;0.9;0.9;;;;;;;13.2;100.0;100420;;;;
2022/10/15 05:33:00;;;;;;;2.2;2.1;;;;;;;13.2;100.0;100410;;;;
2022/10/15 05:34:04;;;;;;;2.2;2.1;;;;;;;13.2;100.0;100410;;;;
2022/10/15 05:35:00;;;;;;;2.2;2.1;;;;;;;13.3;100.0;100420;;;;
2022/10/15 05:36:10;;;;;;;2.2;2.1;;;;;;;13.3;100.0;100420;;;;
2022/10/15 05:37:00;;;;;;;2.2;2.1;;;;;;;13.4;100.0;100420;;;;
2022/10/15 05:38:00;;;;;;;2.2;2.1;;;;;;;13.4;100.0;100420;;;;
2022/10/15 05:39:01;;;;;;;2.2;2.1;;;;;;;13.4;100.0;100420;;;;
2022/10/15 05:40:00;;;;;;;2.2;2.1;;;;;;;13.4;100.0;100420;;;;
2022/10/15 05:41:00;;;;;;;2.2;2.1;;;;;;;13.5;100.0;100420;;;;
2022/10/15 05:42:00;;;;;;;2.2;2.1;;;;;;;13.5;100.0;100420;;;;
2022/10/15 05:43:00;;;;;;;2.2;2.1;;;;;;;13.2;100.0;100420;;;;
2022/10/15 05:44:00;;;;;;;2.2;2.1;;;;;;;13.2;100.0;100420;;;;
2022/10/15 05:45:00;;;;;;;2.2;2.1;;;;;;;13.3;100.0;100410;;;;
2022/10/15 05:46:00;;;;;;;2.2;2.1;;;;;;;13.3;100.0;100410;;;;
2022/10/15 05:47:00;;;;;;;2.2;2.1;;;;;;;13.3;100.0;100420;;;;
2022/10/15 05:48:00;;;;;;;2.2;2.1;;;;;;;13.3;100.0;100420;;;;
2022/10/15 05:49:00;;;;;;;2.2;2.1;;;;;;;13.3;100.0;100420;;;;
2022/10/15 05:50:00;;;;;;;2.2;2.1;;;;;;;13.3;100.0;100420;;;;
2022/10/15 05:51:01;;;;;;;2.2;2.1;;;;;;;13.4;100.0;100420;;;;
2022/10/15 05:52:00;;;;;;;2.2;2.1;;;;;;;13.4;100.0;100420;;;;
2022/10/15 05:53:00;;;;;;;1.6;1.6;;;;;;;13.3;100.0;100420;;;;
2022/10/15 05:54:00;;;;;;;1.6;1.6;;;;;;;13.3;100.0;100420;;;;
2022/10/15 05:55:00;;;;;;;1.6;1.6;;;;;;;13.3;100.0;100420;;;;
2022/10/15 05:56:00;;;;;;;1.6;1.6;;;;;;;13.3;100.0;100420;;;;
2022/10/15 05:57:00;;;;;;;1.6;1.6;;;;;;;13.4;100.0;100420;;;;
2022/10/15 05:58:01;;;;;;;1.6;1.6;;;;;;;13.4;100.0;100420;;;;
2022/10/15 05:59:00;;;;;;;1.6;1.6;;;;;;;13.4;100.0;100420;;;;
2022/10/15 06:00:00;;;;;;;1.6;1.6;;;;;;;13.4;100.0;100420;;;;
2022/10/15 06:01:01;;;;;;;1.6;1.6;;;;;;;13.3;100.0;100420;;;;
2022/10/15 06:02:00;;;;;;;1.6;1.6;;;;;;;13.3;100.0;100420;;;;
2022/10/15 06:03:00;;;;;;;1.6;1.6;;;;;;;13.4;100.0;100420;;;;
2022/10/15 06:04:00;;;;;;;1.6;1.6;;;;;;;13.4;100.0;100420;;;;
2022/10/15 06:05:00;;;;;;;1.6;1.6;;;;;;;13.4;100.0;100420;;;;
2022/10/15 06:06:00;;;;;;;1.6;1.6;;;;;;;13.4;100.0;100420;;;;
2022/10/15 06:07:00;;;;;;;1.6;1.6;;;;;;;13.5;100.0;100420;;;;
2022/10/15 06:08:00;;;;;;;1.6;1.6;;;;;;;13.5;100.0;100420;;;;
2022/10/15 06:09:00;;;;;;;1.6;1.6;;;;;;;13.6;100.0;100410;;;;
2022/10/15 06:10:00;;;;;;;1.6;1.6;;;;;;;13.6;100.0;100410;;;;
2022/10/15 06:11:08;;;;;;;1.6;1.6;;;;;;;13.5;100.0;100410;;;;
2022/10/15 06:12:00;;;;;;;1.6;1.6;;;;;;;13.5;100.0;100410;;;;
2022/10/15 06:13:00;;;;;;;2.3;1.4;;;;;;;13.5;100.0;100410;;;;
2022/10/15 06:14:00;;;;;;;2.3;1.4;;;;;;;13.5;100.0;100410;;;;
2022/10/15 06:15:00;;;;;;;2.3;1.4;;;;;;;13.7;100.0;100420;;;;
2022/10/15 06:16:02;;;;;;;2.3;1.4;;;;;;;13.7;100.0;100420;;;;
2022/10/15 06:17:00;;;;;;;2.3;1.4;;;;;;;13.6;100.0;100410;;;;
2022/10/15 06:18:00;;;;;;;2.3;1.4;;;;;;;13.6;100.0;100410;;;;
2022/10/15 06:19:00;;;;;;;2.3;1.4;;;;;;;13.8;100.0;100410;;;;
2022/10/15 06:20:00;;;;;;;2.3;1.4;;;;;;;13.8;100.0;100410;;;;
2022/10/15 06:21:00;;;;;;;2.3;1.4;;;;;;;13.5;100.0;100410;;;;
2022/10/15 06:22:00;;;;;;;2.3;1.4;;;;;;;13.5;100.0;100410;;;;